DQA185 VRMM-OPKC
Flight info
| Callsign | DQA185 |
|---|---|
| Flight time | N/A |
| Altitude | 40000 |
| Route | KAGUM2B KAGUM R329 POMAN P570 OTABI/N0477F390 A474 BBB/N0472F260 B342 SAPNA M638 MINAR |
| Aircraft | A333/H-SDE3GHIJ2J3J5M1RVWXY/LB2D1 |
Departure
| Time | 2026-05-04 08:28 |
|---|---|
| Airport | Velana International Airport (VRMM) |
Arrival
| Time | N/A |
|---|---|
| Airport | Jinnah International Airport (OPKC) |
| Time | Latitude | Longitude | Altitude | Speed | Heading |
|---|---|---|---|---|---|
| 2026-05-04 08:12 | 4.18961 | 73.52794 | 15 ft | 0 kts | 355° |
| 2026-05-04 08:24 | 4.19543 | 73.52909 | 14 ft | 23 kts | 358° |
| 2026-05-04 08:24 | 4.19704 | 73.52902 | 14 ft | 24 kts | 357° |
| 2026-05-04 08:24 | 4.19871 | 73.52899 | 14 ft | 24 kts | 359° |
| 2026-05-04 08:24 | 4.20043 | 73.52897 | 14 ft | 25 kts | 359° |
| 2026-05-04 08:25 | 4.20218 | 73.52893 | 14 ft | 25 kts | 358° |
| 2026-05-04 08:25 | 4.20350 | 73.52924 | 14 ft | 16 kts | 45° |
| 2026-05-04 08:25 | 4.20369 | 73.52964 | 14 ft | 0 kts | 83° |
| 2026-05-04 08:27 | 4.20267 | 73.53099 | 13 ft | 4 kts | 178° |
| 2026-05-04 08:28 | 4.19980 | 73.53099 | 13 ft | 81 kts | 180° |
| 2026-05-04 08:28 | 4.19161 | 73.53096 | 20 ft | 153 kts | 181° |
| 2026-05-04 08:28 | 4.17971 | 73.53121 | 654 ft | 178 kts | 180° |
| 2026-05-04 08:28 | 4.16693 | 73.53113 | 1655 ft | 194 kts | 186° |
| 2026-05-04 08:29 | 4.15285 | 73.53061 | 2223 ft | 214 kts | 185° |
| 2026-05-04 08:29 | 4.13696 | 73.53025 | 2491 ft | 243 kts | 180° |
| 2026-05-04 08:29 | 4.12014 | 73.53520 | 2880 ft | 266 kts | 148° |
| 2026-05-04 08:31 | 4.18214 | 73.62619 | 7794 ft | 289 kts | 9° |
| 2026-05-04 08:33 | 4.30221 | 73.55917 | 11171 ft | 358 kts | 287° |
| 2026-05-04 08:33 | 4.30697 | 73.53431 | 11503 ft | 370 kts | 273° |
| 2026-05-04 08:35 | 4.40909 | 73.41273 | 15345 ft | 399 kts | 8° |
| 2026-05-04 08:35 | 4.43589 | 73.42053 | 15840 ft | 405 kts | 19° |
| 2026-05-04 08:35 | 4.46226 | 73.43114 | 16288 ft | 410 kts | 21° |
| 2026-05-04 08:35 | 4.48836 | 73.44204 | 16745 ft | 413 kts | 22° |
| 2026-05-04 08:37 | 4.65795 | 73.46457 | 19293 ft | 427 kts | 351° |
| 2026-05-04 08:37 | 4.68740 | 73.46025 | 19693 ft | 430 kts | 351° |
| 2026-05-04 08:37 | 4.71710 | 73.45596 | 20073 ft | 432 kts | 350° |
| 2026-05-04 08:38 | 4.74702 | 73.45167 | 20435 ft | 435 kts | 351° |
| 2026-05-04 08:38 | 4.77716 | 73.44739 | 20817 ft | 437 kts | 351° |
| 2026-05-04 08:38 | 4.80739 | 73.44312 | 21190 ft | 440 kts | 351° |
| 2026-05-04 08:40 | 5.02359 | 73.41265 | 23623 ft | 457 kts | 352° |
| 2026-05-04 08:40 | 5.05527 | 73.40818 | 23917 ft | 460 kts | 351° |
| 2026-05-04 08:40 | 5.08703 | 73.40370 | 24230 ft | 461 kts | 351° |
| 2026-05-04 08:41 | 5.11893 | 73.39919 | 24538 ft | 463 kts | 352° |
| 2026-05-04 08:41 | 5.15056 | 73.39472 | 24823 ft | 465 kts | 352° |
| 2026-05-04 08:41 | 5.18271 | 73.39018 | 25129 ft | 467 kts | 352° |
| 2026-05-04 08:41 | 5.21495 | 73.38562 | 25426 ft | 469 kts | 352° |
| 2026-05-04 08:42 | 5.24739 | 73.38105 | 25718 ft | 471 kts | 352° |
| 2026-05-04 08:42 | 5.27992 | 73.37645 | 26020 ft | 473 kts | 352° |
| 2026-05-04 08:42 | 5.31264 | 73.37183 | 26320 ft | 475 kts | 352° |
| 2026-05-04 08:42 | 5.34547 | 73.36719 | 26605 ft | 477 kts | 352° |
| 2026-05-04 08:43 | 5.37842 | 73.36254 | 26905 ft | 479 kts | 353° |
| 2026-05-04 08:43 | 5.41153 | 73.35786 | 27201 ft | 481 kts | 353° |
| 2026-05-04 08:43 | 5.44473 | 73.35317 | 27479 ft | 483 kts | 353° |
| 2026-05-04 08:43 | 5.47769 | 73.34851 | 27766 ft | 485 kts | 353° |
| 2026-05-04 08:44 | 5.51129 | 73.34375 | 28014 ft | 488 kts | 352° |
| 2026-05-04 08:44 | 5.54490 | 73.33814 | 28271 ft | 490 kts | 350° |
| 2026-05-04 08:46 | 5.78086 | 73.28834 | 30424 ft | 494 kts | 349° |
| 2026-05-04 08:46 | 5.81456 | 73.28132 | 30666 ft | 495 kts | 349° |
| 2026-05-04 08:46 | 5.84842 | 73.27429 | 30851 ft | 497 kts | 349° |
| 2026-05-04 08:46 | 5.88241 | 73.26725 | 30985 ft | 501 kts | 349° |
| 2026-05-04 08:47 | 5.91661 | 73.26015 | 31232 ft | 501 kts | 349° |
| 2026-05-04 08:47 | 5.95081 | 73.25305 | 31519 ft | 501 kts | 349° |
| 2026-05-04 08:47 | 5.98493 | 73.24596 | 31861 ft | 499 kts | 349° |
| 2026-05-04 08:47 | 6.01868 | 73.23894 | 32123 ft | 500 kts | 349° |
| 2026-05-04 08:48 | 6.05282 | 73.23185 | 32399 ft | 500 kts | 349° |
| 2026-05-04 08:48 | 6.08684 | 73.22477 | 32712 ft | 499 kts | 349° |
| 2026-05-04 08:48 | 6.12087 | 73.21769 | 33002 ft | 499 kts | 349° |
| 2026-05-04 08:48 | 6.15487 | 73.21062 | 33279 ft | 499 kts | 349° |
| 2026-05-04 08:49 | 6.18894 | 73.20353 | 33569 ft | 499 kts | 349° |
| 2026-05-04 08:50 | 6.39193 | 73.16128 | 35262 ft | 494 kts | 349° |
| 2026-05-04 08:50 | 6.42554 | 73.15428 | 35536 ft | 493 kts | 349° |
| 2026-05-04 08:51 | 6.45867 | 73.14738 | 35799 ft | 492 kts | 349° |
| 2026-05-04 08:51 | 6.49224 | 73.14039 | 36063 ft | 492 kts | 349° |
| 2026-05-04 08:51 | 6.52568 | 73.13343 | 36336 ft | 491 kts | 349° |
| 2026-05-04 08:51 | 6.55911 | 73.12646 | 36586 ft | 490 kts | 349° |
| 2026-05-04 08:52 | 6.59260 | 73.11948 | 36782 ft | 490 kts | 349° |
| 2026-05-04 08:52 | 6.62600 | 73.11252 | 37012 ft | 490 kts | 349° |
| 2026-05-04 08:52 | 6.65939 | 73.10556 | 37260 ft | 489 kts | 349° |
| 2026-05-04 08:52 | 6.69274 | 73.09861 | 37500 ft | 489 kts | 349° |
| 2026-05-04 08:53 | 6.72601 | 73.09168 | 37739 ft | 488 kts | 349° |
| 2026-05-04 08:54 | 6.95788 | 73.04331 | 39178 ft | 484 kts | 349° |
| 2026-05-04 08:55 | 6.99080 | 73.03644 | 39367 ft | 483 kts | 349° |
| 2026-05-04 08:55 | 7.02368 | 73.02957 | 39561 ft | 481 kts | 349° |
| 2026-05-04 08:55 | 7.05600 | 73.02283 | 39747 ft | 480 kts | 349° |
| 2026-05-04 08:55 | 7.08875 | 73.01599 | 39872 ft | 481 kts | 349° |
| 2026-05-04 08:57 | 7.32283 | 72.96709 | 39872 ft | 495 kts | 349° |
| 2026-05-04 09:01 | 7.79403 | 72.86719 | 39867 ft | 494 kts | 349° |
| 2026-05-04 09:01 | 7.86095 | 72.85288 | 39867 ft | 494 kts | 349° |
| 2026-05-04 09:02 | 7.92817 | 72.83850 | 39867 ft | 494 kts | 349° |
| 2026-05-04 09:02 | 7.98411 | 72.82653 | 39861 ft | 494 kts | 349° |
| 2026-05-04 09:03 | 8.05138 | 72.81213 | 39869 ft | 494 kts | 348° |
| 2026-05-04 09:03 | 8.11870 | 72.79771 | 39866 ft | 494 kts | 348° |
| 2026-05-04 09:04 | 8.18595 | 72.78330 | 39863 ft | 494 kts | 348° |
| 2026-05-04 09:04 | 8.25327 | 72.76887 | 39867 ft | 494 kts | 348° |
| 2026-05-04 09:05 | 8.32062 | 72.75443 | 39865 ft | 494 kts | 348° |
| 2026-05-04 09:05 | 8.38753 | 72.74008 | 39861 ft | 495 kts | 348° |
| 2026-05-04 09:06 | 8.45495 | 72.72561 | 39866 ft | 495 kts | 348° |
| 2026-05-04 09:08 | 8.72408 | 72.66782 | 39863 ft | 495 kts | 348° |
| 2026-05-04 09:08 | 8.79140 | 72.65335 | 39861 ft | 494 kts | 348° |
| 2026-05-04 09:09 | 8.85876 | 72.63887 | 39861 ft | 495 kts | 348° |
| 2026-05-04 09:09 | 8.92614 | 72.62437 | 39864 ft | 494 kts | 348° |
| 2026-05-04 09:10 | 8.99341 | 72.60990 | 39863 ft | 494 kts | 348° |
| 2026-05-04 09:10 | 9.06040 | 72.59548 | 39859 ft | 493 kts | 348° |
| 2026-05-04 09:11 | 9.12757 | 72.58102 | 39862 ft | 493 kts | 348° |
| 2026-05-04 09:11 | 9.19425 | 72.56665 | 39860 ft | 493 kts | 348° |
| 2026-05-04 09:12 | 9.26145 | 72.55217 | 39863 ft | 493 kts | 348° |
| 2026-05-04 09:14 | 9.52896 | 72.49446 | 39859 ft | 490 kts | 347° |
| 2026-05-04 09:14 | 9.59531 | 72.48014 | 39857 ft | 490 kts | 348° |
| 2026-05-04 09:15 | 9.66231 | 72.46638 | 39856 ft | 490 kts | 352° |
| 2026-05-04 09:15 | 9.73051 | 72.46369 | 39860 ft | 490 kts | 0° |
| 2026-05-04 09:17 | 10.03832 | 72.47664 | 39859 ft | 492 kts | 2° |
| 2026-05-04 09:18 | 10.10690 | 72.47954 | 39856 ft | 491 kts | 2° |
| 2026-05-04 09:18 | 10.17523 | 72.48243 | 39852 ft | 491 kts | 2° |
| 2026-05-04 09:19 | 10.24346 | 72.48531 | 39847 ft | 491 kts | 2° |
| 2026-05-04 09:19 | 10.31185 | 72.48821 | 39853 ft | 491 kts | 2° |
| 2026-05-04 09:20 | 10.37981 | 72.49109 | 39852 ft | 491 kts | 2° |
| 2026-05-04 09:20 | 10.44825 | 72.49400 | 39853 ft | 491 kts | 2° |
| 2026-05-04 09:21 | 10.51654 | 72.49690 | 39847 ft | 491 kts | 1° |
| 2026-05-04 09:21 | 10.58452 | 72.49979 | 39852 ft | 491 kts | 2° |
| 2026-05-04 09:22 | 10.65306 | 72.50270 | 39845 ft | 491 kts | 2° |
| 2026-05-04 09:22 | 10.72139 | 72.50561 | 39850 ft | 491 kts | 2° |
| 2026-05-04 09:23 | 10.78921 | 72.50849 | 39850 ft | 491 kts | 2° |
| 2026-05-04 09:23 | 10.85760 | 72.51140 | 39847 ft | 491 kts | 2° |
| 2026-05-04 09:25 | 11.13051 | 72.52303 | 39851 ft | 491 kts | 2° |
| 2026-05-04 09:26 | 11.19877 | 72.52594 | 39851 ft | 491 kts | 2° |
| 2026-05-04 09:26 | 11.26705 | 72.52886 | 39843 ft | 491 kts | 2° |
| 2026-05-04 09:27 | 11.33528 | 72.53177 | 39847 ft | 491 kts | 2° |
| 2026-05-04 09:27 | 11.40320 | 72.53467 | 39846 ft | 491 kts | 2° |
| 2026-05-04 09:28 | 11.47153 | 72.53759 | 39847 ft | 491 kts | 2° |
| 2026-05-04 09:28 | 11.53966 | 72.54050 | 39842 ft | 489 kts | 2° |
| 2026-05-04 09:29 | 11.60773 | 72.54342 | 39845 ft | 489 kts | 2° |
| 2026-05-04 09:29 | 11.67572 | 72.54633 | 39839 ft | 488 kts | 2° |
| 2026-05-04 09:30 | 11.74316 | 72.54922 | 39841 ft | 488 kts | 2° |
| 2026-05-04 09:30 | 11.81116 | 72.55213 | 39841 ft | 488 kts | 2° |
| 2026-05-04 09:31 | 11.87896 | 72.55504 | 39836 ft | 487 kts | 2° |
| 2026-05-04 09:31 | 11.94680 | 72.55794 | 39836 ft | 486 kts | 2° |
| 2026-05-04 09:32 | 12.01452 | 72.56085 | 39839 ft | 487 kts | 2° |
| 2026-05-04 09:34 | 12.28536 | 72.57248 | 39834 ft | 489 kts | 1° |
| 2026-05-04 09:34 | 12.35294 | 72.57539 | 39834 ft | 489 kts | 2° |
| 2026-05-04 09:35 | 12.42095 | 72.57832 | 39832 ft | 489 kts | 2° |
| 2026-05-04 09:35 | 12.48892 | 72.58124 | 39834 ft | 489 kts | 2° |
| 2026-05-04 09:37 | 12.76135 | 72.59299 | 39843 ft | 490 kts | 1° |
| 2026-05-04 09:38 | 12.82967 | 72.59594 | 39839 ft | 490 kts | 1° |
| 2026-05-04 09:38 | 12.89791 | 72.59889 | 39839 ft | 490 kts | 2° |
| 2026-05-04 09:39 | 12.96571 | 72.60182 | 39840 ft | 490 kts | 2° |
| 2026-05-04 09:39 | 13.03398 | 72.60477 | 39836 ft | 491 kts | 1° |
| 2026-05-04 09:40 | 13.10229 | 72.60773 | 39829 ft | 491 kts | 1° |
| 2026-05-04 09:40 | 13.17050 | 72.61068 | 39839 ft | 491 kts | 2° |
| 2026-05-04 09:42 | 13.44327 | 72.62251 | 39832 ft | 491 kts | 2° |
| 2026-05-04 09:43 | 13.51111 | 72.62545 | 39836 ft | 491 kts | 1° |
| 2026-05-04 09:43 | 13.57935 | 72.62842 | 39836 ft | 491 kts | 1° |
| 2026-05-04 09:44 | 13.64755 | 72.63138 | 39835 ft | 490 kts | 1° |
| 2026-05-04 09:46 | 13.92011 | 72.64325 | 39837 ft | 490 kts | 1° |
| 2026-05-04 09:46 | 13.98844 | 72.64622 | 39829 ft | 491 kts | 1° |
| 2026-05-04 09:47 | 14.05633 | 72.64919 | 39825 ft | 491 kts | 1° |
| 2026-05-04 09:49 | 14.32962 | 72.66112 | 39829 ft | 491 kts | 1° |
| 2026-05-04 09:51 | 14.56828 | 72.67158 | 39827 ft | 491 kts | 1° |
| 2026-05-04 09:51 | 14.63662 | 72.67457 | 39830 ft | 491 kts | 2° |
| 2026-05-04 09:52 | 14.69354 | 72.67707 | 39823 ft | 491 kts | 2° |
| 2026-05-04 09:52 | 14.77289 | 72.68055 | 39827 ft | 491 kts | 1° |
| 2026-05-04 09:53 | 14.82978 | 72.68305 | 39820 ft | 491 kts | 1° |
| 2026-05-04 09:53 | 14.89806 | 72.68605 | 39826 ft | 491 kts | 1° |
| 2026-05-04 09:54 | 14.96637 | 72.68906 | 39827 ft | 491 kts | 1° |
| 2026-05-04 09:54 | 15.03451 | 72.69206 | 39818 ft | 490 kts | 1° |
| 2026-05-04 09:55 | 15.10260 | 72.69505 | 39827 ft | 490 kts | 2° |
| 2026-05-04 09:55 | 15.17075 | 72.69806 | 39828 ft | 489 kts | 1° |
| 2026-05-04 09:56 | 15.23853 | 72.70104 | 39815 ft | 490 kts | 1° |
| 2026-05-04 09:56 | 15.30662 | 72.70405 | 39826 ft | 490 kts | 1° |
| 2026-05-04 09:57 | 15.37458 | 72.70705 | 39818 ft | 488 kts | 1° |
| 2026-05-04 09:57 | 15.44246 | 72.71005 | 39816 ft | 488 kts | 1° |
| 2026-05-04 09:58 | 15.50999 | 72.71303 | 39813 ft | 488 kts | 1° |
| 2026-05-04 09:58 | 15.57792 | 72.71604 | 39820 ft | 488 kts | 1° |
| 2026-05-04 10:00 | 15.84932 | 72.72807 | 39828 ft | 488 kts | 1° |
| 2026-05-04 10:04 | 16.32305 | 72.74913 | 39818 ft | 486 kts | 1° |
| 2026-05-04 10:04 | 16.39003 | 72.75213 | 39812 ft | 484 kts | 1° |
| 2026-05-04 10:05 | 16.45736 | 72.75513 | 39818 ft | 484 kts | 1° |
| 2026-05-04 10:05 | 16.52478 | 72.75814 | 39817 ft | 484 kts | 1° |
| 2026-05-04 10:06 | 16.59171 | 72.76113 | 39812 ft | 484 kts | 1° |
| 2026-05-04 10:06 | 16.65903 | 72.76414 | 39737 ft | 480 kts | 1° |
| 2026-05-04 10:08 | 16.85433 | 72.77287 | 36581 ft | 473 kts | 0° |
| 2026-05-04 10:08 | 16.88733 | 72.77434 | 35840 ft | 476 kts | 0° |
| 2026-05-04 10:08 | 16.92017 | 72.77581 | 35126 ft | 479 kts | 1° |
| 2026-05-04 10:08 | 16.95352 | 72.77731 | 34429 ft | 482 kts | 1° |
| 2026-05-04 10:09 | 16.98714 | 72.77882 | 33727 ft | 484 kts | 1° |
| 2026-05-04 10:09 | 17.02128 | 72.78035 | 32939 ft | 485 kts | 0° |
| 2026-05-04 10:09 | 17.05474 | 72.78186 | 32205 ft | 486 kts | 1° |
| 2026-05-04 10:09 | 17.08856 | 72.78338 | 31469 ft | 487 kts | 1° |
| 2026-05-04 10:10 | 17.12241 | 72.78491 | 30748 ft | 487 kts | 1° |
| 2026-05-04 10:10 | 17.15631 | 72.78644 | 30050 ft | 487 kts | 1° |
| 2026-05-04 10:10 | 17.19011 | 72.78796 | 29260 ft | 486 kts | 1° |
| 2026-05-04 10:10 | 17.22387 | 72.78948 | 28484 ft | 485 kts | 1° |
| 2026-05-04 10:11 | 17.25758 | 72.79101 | 27725 ft | 483 kts | 1° |
| 2026-05-04 10:11 | 17.29117 | 72.79252 | 26976 ft | 482 kts | 1° |
| 2026-05-04 10:11 | 17.32461 | 72.79403 | 26312 ft | 479 kts | 1° |
| 2026-05-04 10:11 | 17.35767 | 72.79553 | 25944 ft | 469 kts | 0° |
| 2026-05-04 10:12 | 17.38973 | 72.79700 | 25825 ft | 453 kts | 0° |
| 2026-05-04 10:12 | 17.42059 | 72.79842 | 25818 ft | 436 kts | 0° |
| 2026-05-04 10:12 | 17.44997 | 72.79978 | 25817 ft | 420 kts | 0° |
| 2026-05-04 10:12 | 17.47861 | 72.80109 | 25819 ft | 404 kts | 0° |
| 2026-05-04 10:13 | 17.50629 | 72.80234 | 25813 ft | 390 kts | 0° |
| 2026-05-04 10:13 | 17.53285 | 72.80355 | 25811 ft | 375 kts | 360° |
| 2026-05-04 10:13 | 17.55856 | 72.80471 | 25812 ft | 362 kts | 360° |
| 2026-05-04 10:13 | 17.58327 | 72.80582 | 25812 ft | 349 kts | 360° |
| 2026-05-04 10:14 | 17.60706 | 72.80690 | 25810 ft | 336 kts | 360° |
| 2026-05-04 10:14 | 17.63042 | 72.80793 | 25814 ft | 343 kts | 359° |
| 2026-05-04 10:16 | 17.82342 | 72.81642 | 25801 ft | 444 kts | 0° |
| 2026-05-04 10:16 | 17.85469 | 72.81786 | 25801 ft | 455 kts | 0° |
| 2026-05-04 10:16 | 17.88678 | 72.81932 | 25800 ft | 465 kts | 0° |
| 2026-05-04 10:16 | 17.91933 | 72.82082 | 25803 ft | 470 kts | 0° |
| 2026-05-04 10:17 | 17.95172 | 72.82231 | 25806 ft | 471 kts | 0° |
| 2026-05-04 10:17 | 17.98442 | 72.82382 | 25807 ft | 470 kts | 0° |
| 2026-05-04 10:19 | 18.21325 | 72.83426 | 25805 ft | 470 kts | 0° |
| 2026-05-04 10:19 | 18.24555 | 72.83573 | 25805 ft | 470 kts | 0° |
| 2026-05-04 10:19 | 18.27826 | 72.83722 | 25805 ft | 470 kts | 0° |
| 2026-05-04 10:19 | 18.31100 | 72.83871 | 25805 ft | 470 kts | 0° |
| 2026-05-04 10:20 | 18.34372 | 72.84020 | 25811 ft | 470 kts | 0° |
| 2026-05-04 10:20 | 18.37638 | 72.84169 | 25806 ft | 470 kts | 0° |
| 2026-05-04 10:20 | 18.40912 | 72.84318 | 25807 ft | 470 kts | 0° |
| 2026-05-04 10:20 | 18.44183 | 72.84467 | 25807 ft | 470 kts | 0° |
| 2026-05-04 10:21 | 18.47452 | 72.84617 | 25805 ft | 470 kts | 0° |
| 2026-05-04 10:21 | 18.50688 | 72.84764 | 25805 ft | 470 kts | 0° |
| 2026-05-04 10:21 | 18.53967 | 72.84914 | 25804 ft | 470 kts | 0° |
| 2026-05-04 10:21 | 18.57247 | 72.85064 | 25804 ft | 470 kts | 0° |
| 2026-05-04 10:22 | 18.63787 | 72.85363 | 25801 ft | 470 kts | 0° |
| 2026-05-04 10:22 | 18.67012 | 72.85510 | 25805 ft | 470 kts | 0° |
| 2026-05-04 10:22 | 18.70281 | 72.85660 | 25802 ft | 470 kts | 0° |
| 2026-05-04 10:23 | 18.73548 | 72.85809 | 25804 ft | 470 kts | 0° |
| 2026-05-04 10:23 | 18.76811 | 72.85959 | 25804 ft | 470 kts | 0° |
| 2026-05-04 10:25 | 18.99682 | 72.87008 | 25805 ft | 470 kts | 360° |
| 2026-05-04 10:25 | 19.02895 | 72.87009 | 25801 ft | 467 kts | 353° |
| 2026-05-04 10:25 | 19.06096 | 72.86469 | 25802 ft | 463 kts | 343° |
| 2026-05-04 10:25 | 19.09106 | 72.85302 | 25802 ft | 459 kts | 332° |
| 2026-05-04 10:26 | 19.11795 | 72.83510 | 25802 ft | 456 kts | 320° |
| 2026-05-04 10:26 | 19.14145 | 72.81257 | 25802 ft | 455 kts | 314° |
| 2026-05-04 10:26 | 19.16354 | 72.78862 | 25801 ft | 455 kts | 312° |
| 2026-05-04 10:26 | 19.18499 | 72.76389 | 25801 ft | 455 kts | 311° |
| 2026-05-04 10:27 | 19.20613 | 72.73894 | 25800 ft | 455 kts | 311° |
| 2026-05-04 10:27 | 19.22709 | 72.71417 | 25799 ft | 455 kts | 311° |
| 2026-05-04 10:27 | 19.24831 | 72.68924 | 25799 ft | 455 kts | 311° |
| 2026-05-04 10:27 | 19.26964 | 72.66440 | 25797 ft | 455 kts | 311° |
| 2026-05-04 10:28 | 19.29101 | 72.63968 | 25802 ft | 455 kts | 311° |
| 2026-05-04 10:28 | 19.31250 | 72.61492 | 25793 ft | 455 kts | 311° |
| 2026-05-04 10:28 | 19.33393 | 72.59028 | 25791 ft | 454 kts | 312° |
| 2026-05-04 10:28 | 19.35535 | 72.56567 | 25790 ft | 453 kts | 312° |
| 2026-05-04 10:29 | 19.37645 | 72.54143 | 25793 ft | 453 kts | 312° |
| 2026-05-04 10:29 | 19.39779 | 72.51688 | 25788 ft | 453 kts | 312° |
| 2026-05-04 10:29 | 19.41914 | 72.49231 | 25787 ft | 453 kts | 312° |
| 2026-05-04 10:29 | 19.44053 | 72.46768 | 25787 ft | 453 kts | 312° |
| 2026-05-04 10:30 | 19.46191 | 72.44303 | 25786 ft | 453 kts | 312° |
| 2026-05-04 10:30 | 19.48326 | 72.41841 | 25787 ft | 453 kts | 312° |
| 2026-05-04 10:30 | 19.50448 | 72.39393 | 25785 ft | 453 kts | 312° |
| 2026-05-04 10:30 | 19.52590 | 72.36922 | 25785 ft | 453 kts | 312° |
| 2026-05-04 10:31 | 19.54719 | 72.34463 | 25784 ft | 453 kts | 312° |
| 2026-05-04 10:31 | 19.56845 | 72.32008 | 25782 ft | 453 kts | 312° |
| 2026-05-04 10:32 | 19.69561 | 72.17299 | 25774 ft | 450 kts | 312° |
| 2026-05-04 10:33 | 19.71676 | 72.14848 | 25774 ft | 450 kts | 312° |
| 2026-05-04 10:33 | 19.73769 | 72.12423 | 25774 ft | 450 kts | 312° |
| 2026-05-04 10:33 | 19.75909 | 72.09942 | 25774 ft | 450 kts | 312° |
| 2026-05-04 10:33 | 19.77994 | 72.07523 | 25774 ft | 450 kts | 312° |
| 2026-05-04 10:34 | 19.80104 | 72.05075 | 25774 ft | 450 kts | 312° |
| 2026-05-04 10:34 | 19.82220 | 72.02619 | 25771 ft | 450 kts | 312° |
| 2026-05-04 10:34 | 19.84335 | 72.00162 | 25771 ft | 450 kts | 312° |
| 2026-05-04 10:34 | 19.86447 | 71.97708 | 25771 ft | 450 kts | 312° |
| 2026-05-04 10:35 | 19.88555 | 71.95258 | 25767 ft | 449 kts | 312° |
| 2026-05-04 10:35 | 19.90662 | 71.92807 | 25769 ft | 449 kts | 312° |
| 2026-05-04 10:35 | 19.92770 | 71.90356 | 25766 ft | 449 kts | 312° |
| 2026-05-04 10:35 | 19.94871 | 71.87910 | 25769 ft | 448 kts | 312° |
| 2026-05-04 10:36 | 19.96977 | 71.85458 | 25769 ft | 448 kts | 312° |
| 2026-05-04 10:36 | 19.99077 | 71.83011 | 25768 ft | 448 kts | 312° |
| 2026-05-04 10:36 | 20.01176 | 71.80566 | 25768 ft | 448 kts | 312° |
| 2026-05-04 10:36 | 20.03250 | 71.78147 | 25768 ft | 448 kts | 312° |
| 2026-05-04 10:37 | 20.05349 | 71.75699 | 25765 ft | 448 kts | 312° |
| 2026-05-04 10:37 | 20.07450 | 71.73248 | 25766 ft | 448 kts | 312° |
| 2026-05-04 10:37 | 20.09549 | 71.70798 | 25766 ft | 448 kts | 312° |
| 2026-05-04 10:37 | 20.11647 | 71.68348 | 25769 ft | 448 kts | 312° |
| 2026-05-04 10:39 | 20.24208 | 71.53657 | 25766 ft | 447 kts | 312° |
| 2026-05-04 10:39 | 20.25598 | 71.52030 | 25761 ft | 447 kts | 312° |
| 2026-05-04 10:39 | 20.27693 | 71.49576 | 25768 ft | 447 kts | 312° |
| 2026-05-04 10:40 | 20.29781 | 71.47129 | 25766 ft | 447 kts | 312° |
| 2026-05-04 10:40 | 20.32551 | 71.43881 | 25763 ft | 447 kts | 312° |
| 2026-05-04 10:40 | 20.34644 | 71.41426 | 25762 ft | 447 kts | 312° |
| 2026-05-04 10:40 | 20.36056 | 71.39769 | 25763 ft | 447 kts | 312° |
| 2026-05-04 10:41 | 20.38122 | 71.37344 | 25756 ft | 447 kts | 312° |
| 2026-05-04 10:41 | 20.40214 | 71.34888 | 25754 ft | 447 kts | 312° |
| 2026-05-04 10:41 | 20.42302 | 71.32434 | 25760 ft | 447 kts | 312° |
| 2026-05-04 10:41 | 20.44395 | 71.29974 | 25760 ft | 447 kts | 312° |
| 2026-05-04 10:42 | 20.46481 | 71.27521 | 25759 ft | 446 kts | 312° |
| 2026-05-04 10:42 | 20.48567 | 71.25068 | 25763 ft | 446 kts | 312° |
| 2026-05-04 10:42 | 20.50649 | 71.22617 | 25756 ft | 446 kts | 312° |
| 2026-05-04 10:42 | 20.52734 | 71.20162 | 25750 ft | 446 kts | 312° |
| 2026-05-04 10:43 | 20.54813 | 71.17713 | 25752 ft | 446 kts | 312° |
| 2026-05-04 10:44 | 20.69352 | 71.00557 | 25746 ft | 446 kts | 312° |
| 2026-05-04 10:45 | 20.71438 | 70.98091 | 25749 ft | 446 kts | 312° |
| 2026-05-04 10:45 | 20.73515 | 70.95634 | 25750 ft | 445 kts | 312° |
| 2026-05-04 10:45 | 20.75587 | 70.93182 | 25747 ft | 444 kts | 312° |
| 2026-05-04 10:45 | 20.77654 | 70.90736 | 25747 ft | 444 kts | 312° |
| 2026-05-04 10:46 | 20.79722 | 70.88287 | 25747 ft | 444 kts | 312° |
| 2026-05-04 10:46 | 20.79888 | 70.88090 | 25747 ft | 444 kts | 312° |